createdAt,value
2018-06-07T00:00:00.870Z,1010.3
2018-06-07T00:01:03.183Z,1010.3
2018-06-07T00:02:05.180Z,1010.3
2018-06-07T00:03:07.171Z,1010.3
2018-06-07T00:04:09.442Z,1010.2
2018-06-07T00:05:11.830Z,1010.2
2018-06-07T00:06:13.821Z,1010.2
2018-06-07T00:07:15.822Z,1010.2
2018-06-07T00:08:17.814Z,1010.1
2018-06-07T00:09:19.807Z,1010.2
2018-06-07T00:10:21.814Z,1010.2
2018-06-07T00:11:24.200Z,1010.2
2018-06-07T00:12:26.183Z,1010.2
2018-06-07T00:13:28.189Z,1010.1
2018-06-07T00:14:30.462Z,1010.1
2018-06-07T00:15:32.455Z,1010.1
2018-06-07T00:16:34.450Z,1010.1
2018-06-07T00:17:36.734Z,1010.1
2018-06-07T00:18:38.734Z,1010
2018-06-07T00:19:40.728Z,1010
2018-06-07T00:20:43.008Z,1010.1
2018-06-07T00:21:45.022Z,1010.1
2018-06-07T00:22:47.003Z,1010.1
2018-06-07T00:23:49.667Z,1010.1
2018-06-07T00:24:51.659Z,1010.1
2018-06-07T00:25:53.644Z,1010.1
2018-06-07T00:26:56.003Z,1010.1
2018-06-07T00:27:57.985Z,1010.1
2018-06-07T00:29:00.902Z,1010.1
2018-06-07T00:30:03.177Z,1010.1
2018-06-07T00:31:05.153Z,1010.1
2018-06-07T00:32:07.131Z,1010.1
2018-06-07T00:33:09.109Z,1010.1
2018-06-07T00:34:11.367Z,1010.1
2018-06-07T00:35:13.634Z,1010.1
2018-06-07T00:36:15.611Z,1010.1
2018-06-07T00:37:18.252Z,1010.1
2018-06-07T00:38:20.513Z,1010.1
2018-06-07T00:39:22.872Z,1010.1
2018-06-07T00:40:24.848Z,1010.1
2018-06-07T00:41:26.821Z,1010.1
2018-06-07T00:42:28.799Z,1010.1
2018-06-07T00:43:30.786Z,1010.1
2018-06-07T00:44:32.758Z,1010.2
2018-06-07T00:45:34.730Z,1010.1
2018-06-07T00:46:36.706Z,1010.1
2018-06-07T00:47:38.684Z,1010.1
2018-06-07T00:48:40.662Z,1010.2
2018-06-07T00:49:42.638Z,1010.2
2018-06-07T00:50:44.617Z,1010.2
2018-06-07T00:51:46.593Z,1010.2
2018-06-07T00:52:48.565Z,1010.2
2018-06-07T00:53:50.544Z,1010.1
2018-06-07T00:54:52.520Z,1010.1
2018-06-07T00:55:54.775Z,1010.1
2018-06-07T00:56:56.750Z,1010.2
2018-06-07T00:57:58.733Z,1010.1
2018-06-07T00:59:00.702Z,1010.1
2018-06-07T01:00:02.956Z,1010.1
2018-06-07T01:01:05.210Z,1010.1
2018-06-07T01:02:07.186Z,1010.1
2018-06-07T01:03:09.165Z,1010.1
2018-06-07T01:04:11.140Z,1010.1
2018-06-07T01:05:13.114Z,1010.1
2018-06-07T01:06:15.095Z,1010.1
2018-06-07T01:07:17.072Z,1010.1
2018-06-07T01:08:19.045Z,1010.2
2018-06-07T01:09:21.022Z,1010.2
2018-06-07T01:10:22.996Z,1010.2
2018-06-07T01:11:24.974Z,1010.1
2018-06-07T01:12:26.954Z,1010.1
2018-06-07T01:13:29.309Z,1010.2
2018-06-07T01:14:31.566Z,1010.2
2018-06-07T01:15:33.925Z,1010.1
2018-06-07T01:16:35.900Z,1010.1
2018-06-07T01:17:37.921Z,1010.2
2018-06-07T01:18:40.229Z,1010.1
2018-06-07T01:19:42.203Z,1010.2
2018-06-07T01:20:45.083Z,1010.2
2018-06-07T01:21:47.112Z,1010.2
2018-06-07T01:22:49.139Z,1010.2
2018-06-07T01:23:51.169Z,1010.2
2018-06-07T01:24:53.194Z,1010.1
2018-06-07T01:25:55.507Z,1010.2
2018-06-07T01:26:57.533Z,1010.2
2018-06-07T01:27:59.560Z,1010.1
2018-06-07T01:29:01.591Z,1010.1
2018-06-07T01:30:03.621Z,1010.1
2018-06-07T01:31:05.654Z,1010.1
2018-06-07T01:32:07.962Z,1010.1
2018-06-07T01:33:09.987Z,1010.1
2018-06-07T01:34:12.019Z,1010.2
2018-06-07T01:35:14.048Z,1010.1
2018-06-07T01:36:16.074Z,1010.1
2018-06-07T01:37:18.102Z,1010.1
2018-06-07T01:38:20.129Z,1010.2
2018-06-07T01:39:22.157Z,1010.2
2018-06-07T01:40:24.569Z,1010.1
2018-06-07T01:41:26.598Z,1010.1
2018-06-07T01:42:28.630Z,1010.1
2018-06-07T01:43:30.654Z,1010.1
2018-06-07T01:44:32.682Z,1010.1
2018-06-07T01:45:34.715Z,1010.1
2018-06-07T01:46:36.740Z,1010.1
2018-06-07T01:47:39.050Z,1010.1
2018-06-07T01:48:41.080Z,1010.1
2018-06-07T01:49:43.105Z,1010.1
2018-06-07T01:50:45.134Z,1010.1
2018-06-07T01:51:47.447Z,1010.1
2018-06-07T01:52:49.766Z,1010.2
2018-06-07T01:53:51.787Z,1010.1
2018-06-07T01:54:54.207Z,1010.1
2018-06-07T01:55:56.232Z,1010.1
2018-06-07T01:56:58.541Z,1010.1
2018-06-07T01:58:00.568Z,1010.1
2018-06-07T01:59:02.600Z,1010
2018-06-07T02:00:04.628Z,1010.1
2018-06-07T02:01:06.660Z,1010.1
2018-06-07T02:02:08.686Z,1010.1
2018-06-07T02:03:10.716Z,1010
2018-06-07T02:04:12.738Z,1010
2018-06-07T02:05:14.762Z,1010
2018-06-07T02:06:16.775Z,1010
2018-06-07T02:07:19.065Z,1010
2018-06-07T02:08:21.345Z,1010
2018-06-07T02:09:24.107Z,1009.9
2018-06-07T02:10:26.098Z,1010
2018-06-07T02:11:28.094Z,1010
2018-06-07T02:12:30.088Z,1010
2018-06-07T02:13:32.382Z,1010
2018-06-07T02:14:34.383Z,1010
2018-06-07T02:15:36.363Z,1010
2018-06-07T02:16:38.365Z,1010
2018-06-07T02:17:40.348Z,1010
2018-06-07T02:18:42.343Z,1010
2018-06-07T02:19:44.340Z,1010
2018-06-07T02:20:46.332Z,1010
2018-06-07T02:21:48.328Z,1010
2018-06-07T02:22:50.319Z,1010
2018-06-07T02:23:52.313Z,1010.1
2018-06-07T02:24:54.318Z,1010.1
2018-06-07T02:25:56.296Z,1010.1
2018-06-07T02:26:58.691Z,1010.1
2018-06-07T02:28:00.970Z,1010.1
2018-06-07T02:29:02.960Z,1010.1
2018-06-07T02:30:04.959Z,1010.1
2018-06-07T02:31:08.067Z,1010.1
2018-06-07T02:32:10.061Z,1010.1
2018-06-07T02:33:12.344Z,1010.1
2018-06-07T02:34:14.601Z,1010.1
2018-06-07T02:35:17.171Z,1010.2
2018-06-07T02:36:19.177Z,1010.1
2018-06-07T02:37:21.456Z,1010.1
2018-06-07T02:38:23.457Z,1010.1
2018-06-07T02:39:25.452Z,1010.1
2018-06-07T02:40:27.829Z,1010.1
2018-06-07T02:41:29.828Z,1010.1
2018-06-07T02:42:31.826Z,1010.2
2018-06-07T02:43:33.817Z,1010.1
2018-06-07T02:44:35.810Z,1010.1
2018-06-07T02:45:37.805Z,1010.1
2018-06-07T02:46:40.072Z,1010.1
2018-06-07T02:47:42.072Z,1010.1
2018-06-07T02:48:44.377Z,1010.2
2018-06-07T02:49:46.380Z,1010.1
2018-06-07T02:50:48.370Z,1010.1
2018-06-07T02:51:50.368Z,1010.1
2018-06-07T02:52:52.363Z,1010.1
2018-06-07T02:53:54.357Z,1010.1
2018-06-07T02:54:56.360Z,1010.1
2018-06-07T02:55:58.634Z,1010.1
2018-06-07T02:57:00.914Z,1010.2
2018-06-07T02:58:03.188Z,1010.1
2018-06-07T02:59:05.168Z,1010.1
2018-06-07T03:00:07.172Z,1010.1
2018-06-07T03:01:09.459Z,1010.2
2018-06-07T03:02:11.445Z,1010.1
2018-06-07T03:03:13.447Z,1010.1
2018-06-07T03:04:15.442Z,1010.2
2018-06-07T03:05:17.437Z,1010.1
2018-06-07T03:06:19.435Z,1010.1
2018-06-07T03:07:21.428Z,1010.2
2018-06-07T03:08:23.426Z,1010.2
2018-06-07T03:09:25.415Z,1010.2
2018-06-07T03:10:27.801Z,1010.2
2018-06-07T03:11:29.797Z,1010.2
2018-06-07T03:12:32.181Z,1010.2
2018-06-07T03:13:34.169Z,1010.2
2018-06-07T03:14:36.168Z,1010.2
2018-06-07T03:15:38.161Z,1010.2
2018-06-07T03:16:40.436Z,1010.2
2018-06-07T03:17:42.728Z,1010.2
2018-06-07T03:18:45.008Z,1010.2
2018-06-07T03:19:46.998Z,1010.2
2018-06-07T03:20:50.041Z,1010.3
2018-06-07T03:21:52.044Z,1010.3
2018-06-07T03:22:54.328Z,1010.3
2018-06-07T03:23:56.324Z,1010.3
2018-06-07T03:24:58.599Z,1010.3
2018-06-07T03:26:00.875Z,1010.3
2018-06-07T03:27:03.150Z,1010.3
2018-06-07T03:28:05.139Z,1010.3
2018-06-07T03:29:07.143Z,1010.3
2018-06-07T03:30:09.145Z,1010.3
2018-06-07T03:31:11.125Z,1010.3
2018-06-07T03:32:13.971Z,1010.3
2018-06-07T03:33:15.967Z,1010.4
2018-06-07T03:34:17.961Z,1010.3
2018-06-07T03:35:19.953Z,1010.3
2018-06-07T03:36:21.943Z,1010.4
2018-06-07T03:37:23.939Z,1010.3
2018-06-07T03:38:26.207Z,1010.4
2018-06-07T03:39:28.196Z,1010.4
2018-06-07T03:40:30.215Z,1010.4
2018-06-07T03:41:32.487Z,1010.4
2018-06-07T03:42:34.481Z,1010.4
2018-06-07T03:43:36.474Z,1010.4
2018-06-07T03:44:38.476Z,1010.5
2018-06-07T03:45:40.852Z,1010.5
2018-06-07T03:46:42.847Z,1010.5
2018-06-07T03:47:44.856Z,1010.5
2018-06-07T03:48:46.850Z,1010.5
2018-06-07T03:49:49.222Z,1010.5
2018-06-07T03:50:51.883Z,1010.5
2018-06-07T03:51:53.877Z,1010.5
2018-06-07T03:52:55.872Z,1010.5
2018-06-07T03:53:58.147Z,1010.5
2018-06-07T03:55:00.131Z,1010.5
2018-06-07T03:56:02.124Z,1010.6
2018-06-07T03:57:04.135Z,1010.5
2018-06-07T03:58:06.121Z,1010.5
2018-06-07T03:59:08.111Z,1010.6
2018-06-07T04:00:10.494Z,1010.6
2018-06-07T04:01:12.486Z,1010.6
2018-06-07T04:02:14.474Z,1010.6
2018-06-07T04:03:16.461Z,1010.6
2018-06-07T04:04:18.470Z,1010.6
2018-06-07T04:05:20.459Z,1010.6
2018-06-07T04:06:22.447Z,1010.6
2018-06-07T04:07:24.444Z,1010.6
2018-06-07T04:08:26.435Z,1010.6
2018-06-07T04:09:28.433Z,1010.6
2018-06-07T04:10:30.435Z,1010.6
2018-06-07T04:11:32.460Z,1010.7
2018-06-07T04:12:34.434Z,1010.7
2018-06-07T04:13:36.409Z,1010.7
2018-06-07T04:14:38.401Z,1010.7
2018-06-07T04:15:40.407Z,1010.7
2018-06-07T04:16:42.395Z,1010.7
2018-06-07T04:17:44.388Z,1010.7
2018-06-07T04:18:46.386Z,1010.7
2018-06-07T04:19:48.388Z,1010.7
2018-06-07T04:20:50.368Z,1010.7
2018-06-07T04:21:52.369Z,1010.7
2018-06-07T04:22:54.375Z,1010.8
2018-06-07T04:23:56.652Z,1010.8
2018-06-07T04:24:58.938Z,1010.8
2018-06-07T04:26:00.934Z,1010.8
2018-06-07T04:27:02.934Z,1010.7
2018-06-07T04:28:04.927Z,1010.7
2018-06-07T04:29:06.927Z,1010.8
2018-06-07T04:30:08.912Z,1010.7
2018-06-07T04:31:10.917Z,1010.7
2018-06-07T04:32:12.925Z,1010.7
2018-06-07T04:33:14.910Z,1010.8
2018-06-07T04:34:16.906Z,1010.8
2018-06-07T04:35:19.189Z,1010.7
2018-06-07T04:36:21.454Z,1010.8
2018-06-07T04:37:23.456Z,1010.8
2018-06-07T04:38:25.441Z,1010.8
2018-06-07T04:39:27.442Z,1010.8
2018-06-07T04:40:29.429Z,1010.8
2018-06-07T04:41:31.809Z,1010.8
2018-06-07T04:42:33.801Z,1010.8
2018-06-07T04:43:35.818Z,1010.8
2018-06-07T04:44:37.805Z,1010.8
2018-06-07T04:45:40.190Z,1010.8
2018-06-07T04:46:42.181Z,1010.8
2018-06-07T04:47:44.190Z,1010.8
2018-06-07T04:48:46.176Z,1010.8
2018-06-07T04:49:48.173Z,1010.9
2018-06-07T04:50:50.173Z,1010.9
2018-06-07T04:51:52.164Z,1010.9
2018-06-07T04:52:54.833Z,1010.9
2018-06-07T04:53:57.111Z,1010.8
2018-06-07T04:54:59.097Z,1010.8
2018-06-07T04:56:01.098Z,1010.9
2018-06-07T04:57:03.471Z,1010.9
2018-06-07T04:58:05.470Z,1010.8
2018-06-07T04:59:07.466Z,1010.8
2018-06-07T05:00:09.465Z,1010.8
2018-06-07T05:01:11.460Z,1010.8
2018-06-07T05:02:13.741Z,1010.8
2018-06-07T05:03:15.734Z,1010.8
2018-06-07T05:04:17.735Z,1010.9
2018-06-07T05:05:19.729Z,1010.9
2018-06-07T05:06:21.737Z,1010.9
2018-06-07T05:07:23.746Z,1010.8
2018-06-07T05:08:26.025Z,1010.9
2018-06-07T05:09:28.010Z,1010.8
2018-06-07T05:10:30.019Z,1010.8
2018-06-07T05:11:32.007Z,1010.8
2018-06-07T05:12:34.001Z,1010.8
2018-06-07T05:13:35.999Z,1010.8
2018-06-07T05:14:37.992Z,1010.8
2018-06-07T05:15:39.997Z,1010.7
2018-06-07T05:16:42.372Z,1010.8
2018-06-07T05:17:44.360Z,1010.8
2018-06-07T05:18:46.364Z,1010.8
2018-06-07T05:19:48.350Z,1010.8
2018-06-07T05:20:50.634Z,1010.8
2018-06-07T05:21:52.634Z,1010.8
2018-06-07T05:22:54.632Z,1010.8
2018-06-07T05:23:56.626Z,1010.8
2018-06-07T05:24:58.612Z,1010.8
2018-06-07T05:26:00.605Z,1010.8
2018-06-07T05:27:02.606Z,1010.8
2018-06-07T05:28:04.597Z,1010.8
2018-06-07T05:29:06.988Z,1010.8
2018-06-07T05:30:08.988Z,1010.8
2018-06-07T05:31:10.980Z,1010.8
2018-06-07T05:32:12.977Z,1010.8
2018-06-07T05:33:14.974Z,1010.8
2018-06-07T05:34:16.973Z,1010.8
2018-06-07T05:35:18.964Z,1010.8
2018-06-07T05:36:20.961Z,1010.8
2018-06-07T05:37:22.965Z,1010.8
2018-06-07T05:38:24.952Z,1010.8
2018-06-07T05:39:26.953Z,1010.8
2018-06-07T05:40:28.951Z,1010.8
2018-06-07T05:41:30.943Z,1010.8
2018-06-07T05:42:32.944Z,1010.8
2018-06-07T05:43:34.931Z,1010.8
2018-06-07T05:44:36.933Z,1010.8
2018-06-07T05:45:39.213Z,1010.8
2018-06-07T05:46:41.207Z,1010.8
2018-06-07T05:47:43.592Z,1010.7
2018-06-07T05:48:45.889Z,1010.8
2018-06-07T05:49:47.872Z,1010.8
2018-06-07T05:50:49.886Z,1010.8
2018-06-07T05:51:51.937Z,1010.8
2018-06-07T05:52:53.876Z,1010.8
2018-06-07T05:53:55.879Z,1010.8
2018-06-07T05:54:57.878Z,1010.8
2018-06-07T05:56:00.635Z,1010.8
2018-06-07T05:57:02.988Z,1010.8
2018-06-07T05:58:04.989Z,1010.7
2018-06-07T05:59:06.991Z,1010.8
2018-06-07T06:00:08.985Z,1010.8
2018-06-07T06:01:11.343Z,1010.8
2018-06-07T06:02:14.024Z,1010.8
2018-06-07T06:03:16.305Z,1010.8
2018-06-07T06:04:18.620Z,1010.8
2018-06-07T06:05:20.626Z,1010.9
2018-06-07T06:06:22.626Z,1010.8
2018-06-07T06:07:24.913Z,1010.9
2018-06-07T06:08:26.905Z,1010.8
2018-06-07T06:09:29.015Z,1010.9
2018-06-07T06:10:30.918Z,1010.8
2018-06-07T06:11:33.302Z,1010.8
2018-06-07T06:12:35.589Z,1010.8
2018-06-07T06:13:37.969Z,1010.8
2018-06-07T06:14:39.968Z,1010.8
2018-06-07T06:15:41.960Z,1010.8
2018-06-07T06:16:43.969Z,1010.8
2018-06-07T06:17:46.259Z,1010.7
2018-06-07T06:18:48.528Z,1010.8
2018-06-07T06:19:50.534Z,1010.8
2018-06-07T06:20:52.542Z,1010.8
2018-06-07T06:21:54.823Z,1010.7
2018-06-07T06:22:56.831Z,1010.7
2018-06-07T06:23:59.097Z,1010.7
2018-06-07T06:25:01.093Z,1010.7
2018-06-07T06:26:03.098Z,1010.7
2018-06-07T06:27:05.094Z,1010.8
2018-06-07T06:28:07.097Z,1010.7
2018-06-07T06:29:09.093Z,1010.7
2018-06-07T06:30:11.090Z,1010.8
2018-06-07T06:31:13.095Z,1010.7
2018-06-07T06:32:15.088Z,1010.7
2018-06-07T06:33:17.157Z,1010.7
2018-06-07T06:34:19.091Z,1010.7
2018-06-07T06:35:21.089Z,1010.7
2018-06-07T06:36:23.372Z,1010.8
2018-06-07T06:37:25.761Z,1010.7
2018-06-07T06:38:27.767Z,1010.7
2018-06-07T06:39:29.778Z,1010.8
2018-06-07T06:40:31.774Z,1010.8
2018-06-07T06:41:33.786Z,1010.8
2018-06-07T06:42:36.075Z,1010.8
2018-06-07T06:43:38.082Z,1010.8
2018-06-07T06:44:40.080Z,1010.8
2018-06-07T06:45:42.784Z,1010.9
2018-06-07T06:46:44.786Z,1010.8
2018-06-07T06:47:46.780Z,1010.9
2018-06-07T06:48:48.779Z,1010.8
2018-06-07T06:49:50.799Z,1010.9
2018-06-07T06:50:52.815Z,1010.9
2018-06-07T06:51:54.817Z,1010.9
2018-06-07T06:52:57.091Z,1010.9
2018-06-07T06:53:59.505Z,1010.9
2018-06-07T06:55:01.511Z,1010.8
2018-06-07T06:56:03.513Z,1010.8
2018-06-07T06:57:05.554Z,1010.9
2018-06-07T06:58:07.532Z,1010.9
2018-06-07T06:59:09.648Z,1010.9
2018-06-07T07:00:11.652Z,1010.9
2018-06-07T07:01:13.672Z,1010.9
2018-06-07T07:02:15.673Z,1010.9
2018-06-07T07:03:17.684Z,1010.9
2018-06-07T07:04:20.467Z,1010.9
2018-06-07T07:05:22.348Z,1010.9
2018-06-07T07:06:24.375Z,1010.9
2018-06-07T07:07:26.369Z,1010.9
2018-06-07T07:08:28.369Z,1010.9
2018-06-07T07:09:30.387Z,1010.9
2018-06-07T07:10:33.050Z,1010.9
2018-06-07T07:11:35.054Z,1010.8
2018-06-07T07:12:37.050Z,1010.8
2018-06-07T07:13:39.345Z,1010.9
2018-06-07T07:14:41.350Z,1010.8
2018-06-07T07:15:43.345Z,1010.8
2018-06-07T07:16:45.753Z,1010.8
2018-06-07T07:17:47.753Z,1010.8
2018-06-07T07:18:50.160Z,1010.8
2018-06-07T07:19:52.161Z,1010.8
2018-06-07T07:20:54.176Z,1010.8
2018-06-07T07:21:56.562Z,1010.8
2018-06-07T07:22:58.553Z,1010.8
2018-06-07T07:24:01.220Z,1010.8
2018-06-07T07:25:03.532Z,1010.8
2018-06-07T07:26:05.554Z,1010.8
2018-06-07T07:27:07.556Z,1010.8
2018-06-07T07:28:09.557Z,1010.7
2018-06-07T07:29:11.562Z,1010.7
2018-06-07T07:30:13.556Z,1010.8
2018-06-07T07:31:15.552Z,1010.8
2018-06-07T07:32:17.567Z,1010.7
2018-06-07T07:33:19.568Z,1010.7
2018-06-07T07:34:22.230Z,1010.7
2018-06-07T07:35:24.239Z,1010.7
2018-06-07T07:36:26.234Z,1010.7
2018-06-07T07:37:28.228Z,1010.7
2018-06-07T07:38:30.236Z,1010.7
2018-06-07T07:39:32.612Z,1010.7
2018-06-07T07:40:34.884Z,1010.7
2018-06-07T07:41:36.900Z,1010.8
2018-06-07T07:42:38.888Z,1010.7
2018-06-07T07:43:41.275Z,1010.7
2018-06-07T07:44:43.277Z,1010.7
2018-06-07T07:45:45.566Z,1010.8
2018-06-07T07:46:47.573Z,1010.8
2018-06-07T07:47:49.564Z,1010.8
2018-06-07T07:48:51.579Z,1010.8
2018-06-07T07:49:53.584Z,1010.8
2018-06-07T07:50:55.581Z,1010.8
2018-06-07T07:51:58.172Z,1010.7
2018-06-07T07:53:00.173Z,1010.8
2018-06-07T07:54:02.180Z,1010.7
2018-06-07T07:55:04.558Z,1010.7
2018-06-07T07:56:06.552Z,1010.8
2018-06-07T07:57:08.558Z,1010.7
2018-06-07T07:58:10.843Z,1010.7
2018-06-07T07:59:12.845Z,1010.7
2018-06-07T08:00:14.845Z,1010.7
2018-06-07T08:01:16.848Z,1010.8
2018-06-07T08:02:19.128Z,1010.7
2018-06-07T08:03:21.138Z,1010.7
2018-06-07T08:04:23.133Z,1010.7
2018-06-07T08:05:25.723Z,1010.7
2018-06-07T08:06:27.723Z,1010.7
2018-06-07T08:07:29.728Z,1010.6
2018-06-07T08:08:31.731Z,1010.7
2018-06-07T08:09:33.740Z,1010.6
2018-06-07T08:10:35.732Z,1010.6
2018-06-07T08:11:37.735Z,1010.6
2018-06-07T08:12:39.739Z,1010.6
2018-06-07T08:13:41.741Z,1010.6
2018-06-07T08:14:43.737Z,1010.6
2018-06-07T08:15:45.740Z,1010.6
2018-06-07T08:16:47.749Z,1010.5
2018-06-07T08:17:49.748Z,1010.5
2018-06-07T08:18:51.754Z,1010.5
2018-06-07T08:19:53.752Z,1010.5
2018-06-07T08:20:55.750Z,1010.5
2018-06-07T08:21:57.768Z,1010.5
2018-06-07T08:22:59.768Z,1010.5
2018-06-07T08:24:01.769Z,1010.5
2018-06-07T08:25:04.156Z,1010.4
2018-06-07T08:26:06.159Z,1010.4
2018-06-07T08:27:08.158Z,1010.4
2018-06-07T08:28:10.164Z,1010.4
2018-06-07T08:29:12.181Z,1010.4
2018-06-07T08:30:14.188Z,1010.4
2018-06-07T08:31:16.842Z,1010.4
2018-06-07T08:32:18.844Z,1010.4
2018-06-07T08:33:20.845Z,1010.4
2018-06-07T08:34:22.847Z,1010.4
2018-06-07T08:35:24.837Z,1010.4
2018-06-07T08:36:27.134Z,1010.4
2018-06-07T08:37:29.145Z,1010.3
2018-06-07T08:38:31.134Z,1010.3
2018-06-07T08:39:33.197Z,1010.4
2018-06-07T08:40:35.769Z,1010.3
2018-06-07T08:41:37.768Z,1010.3
2018-06-07T08:42:40.355Z,1010.3
2018-06-07T08:43:42.342Z,1010.3
2018-06-07T08:44:44.354Z,1010.3
2018-06-07T08:45:46.342Z,1010.3
2018-06-07T08:46:48.351Z,1010.3
2018-06-07T08:47:50.361Z,1010.3
2018-06-07T08:48:52.638Z,1010.3
2018-06-07T08:49:54.648Z,1010.3
2018-06-07T08:50:56.648Z,1010.3
2018-06-07T08:51:58.655Z,1010.3
2018-06-07T08:53:00.663Z,1010.2
2018-06-07T08:54:03.050Z,1010.2
2018-06-07T08:55:05.056Z,1010.2
2018-06-07T08:56:07.054Z,1010.2
2018-06-07T08:57:09.075Z,1010.2
2018-06-07T08:58:11.081Z,1010.2
2018-06-07T08:59:13.080Z,1010.1
2018-06-07T09:00:15.542Z,1010.2
2018-06-07T09:01:17.954Z,1010.1
2018-06-07T09:02:19.971Z,1010.2
2018-06-07T09:03:21.969Z,1010.1
2018-06-07T09:04:24.261Z,1010.1
2018-06-07T09:05:26.270Z,1010.2
2018-06-07T09:06:28.272Z,1010.3
2018-06-07T09:07:30.274Z,1010.2
2018-06-07T09:08:32.280Z,1010.1
2018-06-07T09:09:34.286Z,1010.1
2018-06-07T09:10:36.295Z,1010.2
2018-06-07T09:11:38.684Z,1010.1
2018-06-07T09:12:40.976Z,1010.2
2018-06-07T09:13:42.985Z,1010.2
2018-06-07T09:14:44.994Z,1010.2
2018-06-07T09:15:46.999Z,1010.1
2018-06-07T09:16:49.011Z,1010.2
2018-06-07T09:17:51.016Z,1010.1
2018-06-07T09:18:53.017Z,1010.1
2018-06-07T09:19:55.409Z,1010.1
2018-06-07T09:20:57.422Z,1010.1
2018-06-07T09:21:59.717Z,1010.1
2018-06-07T09:23:01.729Z,1010.1
2018-06-07T09:24:04.299Z,1010.2
2018-06-07T09:25:06.315Z,1010.1
2018-06-07T09:26:08.339Z,1010.1
2018-06-07T09:27:10.314Z,1010
2018-06-07T09:28:12.630Z,1010
2018-06-07T09:29:15.575Z,1010.1
2018-06-07T09:30:17.580Z,1010
2018-06-07T09:31:19.588Z,1010
2018-06-07T09:32:21.599Z,1010.1
2018-06-07T09:33:23.878Z,1010
2018-06-07T09:34:26.172Z,1010
2018-06-07T09:35:28.171Z,1010
2018-06-07T09:36:30.168Z,1010
2018-06-07T09:37:32.186Z,1010
2018-06-07T09:38:34.192Z,1010
2018-06-07T09:39:36.191Z,1010
2018-06-07T09:40:38.587Z,1010
2018-06-07T09:41:40.593Z,1010
2018-06-07T09:42:42.601Z,1010
2018-06-07T09:43:44.917Z,1009.9
2018-06-07T09:44:46.917Z,1010
2018-06-07T09:45:49.606Z,1009.9
2018-06-07T09:46:51.664Z,1009.9
2018-06-07T09:47:54.075Z,1009.9
2018-06-07T09:48:56.251Z,1010
2018-06-07T09:49:58.550Z,1009.9
2018-06-07T09:51:00.550Z,1010
2018-06-07T09:52:02.558Z,1009.9
2018-06-07T09:53:04.567Z,1009.9
2018-06-07T09:54:06.852Z,1010
2018-06-07T09:55:09.239Z,1010
2018-06-07T09:56:11.255Z,1009.9
2018-06-07T09:57:13.260Z,1010
2018-06-07T09:58:15.388Z,1010
2018-06-07T09:59:17.273Z,1009.9
2018-06-07T10:00:19.570Z,1009.9
2018-06-07T10:01:21.574Z,1010
2018-06-07T10:02:23.879Z,1009.9
2018-06-07T10:03:25.889Z,1010
2018-06-07T10:04:27.903Z,1010
2018-06-07T10:05:29.924Z,1010
2018-06-07T10:06:31.943Z,1010
2018-06-07T10:07:34.614Z,1009.9
2018-06-07T10:08:36.942Z,1009.9
2018-06-07T10:09:38.945Z,1009.9
2018-06-07T10:10:40.961Z,1009.9
2018-06-07T10:11:42.972Z,1009.9
2018-06-07T10:12:45.025Z,1009.9
2018-06-07T10:13:47.037Z,1009.9
2018-06-07T10:14:49.051Z,1009.9
2018-06-07T10:15:51.059Z,1009.9
2018-06-07T10:16:53.108Z,1009.9
2018-06-07T10:17:55.078Z,1009.9
2018-06-07T10:18:57.399Z,1010
2018-06-07T10:19:59.401Z,1010
2018-06-07T10:21:01.410Z,1009.9
2018-06-07T10:22:03.431Z,1009.9
2018-06-07T10:23:05.435Z,1009.8
2018-06-07T10:24:07.452Z,1009.9
2018-06-07T10:25:09.456Z,1009.8
2018-06-07T10:26:11.753Z,1009.8
2018-06-07T10:27:13.834Z,1009.8
2018-06-07T10:28:16.010Z,1009.8
2018-06-07T10:29:18.091Z,1009.7
2018-06-07T10:30:20.054Z,1009.7
2018-06-07T10:31:22.082Z,1009.8
2018-06-07T10:32:24.109Z,1009.8
2018-06-07T10:33:26.122Z,1009.7
2018-06-07T10:34:28.146Z,1009.8
2018-06-07T10:35:30.150Z,1009.7
2018-06-07T10:36:32.162Z,1009.7
2018-06-07T10:37:34.193Z,1009.7
2018-06-07T10:38:36.600Z,1009.7
2018-06-07T10:39:38.601Z,1009.7
2018-06-07T10:40:40.647Z,1009.7
2018-06-07T10:41:43.121Z,1009.7
2018-06-07T10:42:45.131Z,1009.7
2018-06-07T10:43:47.140Z,1009.7
2018-06-07T10:44:49.541Z,1009.8
2018-06-07T10:45:51.556Z,1009.7
2018-06-07T10:46:53.573Z,1009.7
2018-06-07T10:47:55.587Z,1009.8
2018-06-07T10:48:57.597Z,1009.8
2018-06-07T10:49:59.601Z,1009.8
2018-06-07T10:51:01.918Z,1009.8
2018-06-07T10:52:04.263Z,1009.7
2018-06-07T10:53:06.617Z,1009.7
2018-06-07T10:54:08.632Z,1009.8
2018-06-07T10:55:10.648Z,1009.8
2018-06-07T10:56:12.670Z,1009.8
2018-06-07T10:57:14.686Z,1009.8
2018-06-07T10:58:16.808Z,1009.8
2018-06-07T10:59:18.880Z,1009.8
2018-06-07T11:00:20.886Z,1009.8
2018-06-07T11:01:23.295Z,1009.8
2018-06-07T11:02:25.595Z,1009.8
2018-06-07T11:03:27.610Z,1009.8
2018-06-07T11:04:29.640Z,1009.7
2018-06-07T11:05:31.756Z,1009.7
2018-06-07T11:06:34.129Z,1009.7
2018-06-07T11:07:36.799Z,1009.7
2018-06-07T11:08:38.819Z,1009.7
2018-06-07T11:09:40.838Z,1009.7
2018-06-07T11:10:43.150Z,1009.7
2018-06-07T11:11:45.453Z,1009.7
2018-06-07T11:12:47.481Z,1009.7
2018-06-07T11:13:49.503Z,1009.6
2018-06-07T11:14:51.580Z,1009.6
2018-06-07T11:15:53.602Z,1009.7
2018-06-07T11:16:55.629Z,1009.6
2018-06-07T11:17:57.644Z,1009.6
2018-06-07T11:18:59.672Z,1009.6
2018-06-07T11:20:02.011Z,1009.6
2018-06-07T11:21:04.029Z,1009.7
2018-06-07T11:22:06.041Z,1009.6
2018-06-07T11:23:08.075Z,1009.5
2018-06-07T11:24:10.075Z,1009.6
2018-06-07T11:25:12.091Z,1009.5
2018-06-07T11:26:14.113Z,1009.5
2018-06-07T11:27:16.125Z,1009.4
2018-06-07T11:28:18.150Z,1009.4
2018-06-07T11:29:20.159Z,1009.4
2018-06-07T11:30:22.179Z,1009.4
2018-06-07T11:31:24.230Z,1009.4
2018-06-07T11:32:26.228Z,1009.4
2018-06-07T11:33:28.235Z,1009.3
2018-06-07T11:34:30.267Z,1009.4
2018-06-07T11:35:32.294Z,1009.3
2018-06-07T11:36:34.317Z,1009.3
2018-06-07T11:37:36.622Z,1009.3
2018-06-07T11:38:38.644Z,1009.4
2018-06-07T11:39:40.669Z,1009.4
2018-06-07T11:40:42.673Z,1009.3
2018-06-07T11:41:44.692Z,1009.3
2018-06-07T11:42:47.003Z,1009.2
2018-06-07T11:43:49.014Z,1009.3
2018-06-07T11:44:51.307Z,1009.3
2018-06-07T11:45:53.338Z,1009.3
2018-06-07T11:46:55.357Z,1009.3
2018-06-07T11:47:57.369Z,1009.2
2018-06-07T11:48:59.442Z,1009.2
2018-06-07T11:50:01.413Z,1009.2
2018-06-07T11:51:03.431Z,1009.2
2018-06-07T11:52:05.451Z,1009.2
2018-06-07T11:53:07.468Z,1009.2
2018-06-07T11:54:09.494Z,1009.2
2018-06-07T11:55:11.783Z,1009.2
2018-06-07T11:56:13.809Z,1009.1
2018-06-07T11:57:15.826Z,1009.1
2018-06-07T11:58:18.123Z,1009.1
2018-06-07T11:59:20.138Z,1009.1
2018-06-07T12:00:22.156Z,1009
2018-06-07T12:01:24.177Z,1009
2018-06-07T12:02:26.490Z,1009.1
2018-06-07T12:03:29.067Z,1009
2018-06-07T12:04:31.396Z,1009
2018-06-07T12:05:33.408Z,1009
2018-06-07T12:06:35.435Z,1009
2018-06-07T12:07:37.456Z,1009
2018-06-07T12:08:39.470Z,1009
2018-06-07T12:09:41.486Z,1009
2018-06-07T12:10:44.088Z,1009.1
2018-06-07T12:11:46.108Z,1009
2018-06-07T12:12:48.786Z,1009
2018-06-07T12:13:51.502Z,1008.9
2018-06-07T12:14:53.538Z,1009
2018-06-07T12:15:55.543Z,1009
2018-06-07T12:16:57.569Z,1009.1
2018-06-07T12:17:59.595Z,1009
2018-06-07T12:19:01.995Z,1008.9
2018-06-07T12:20:04.020Z,1009
2018-06-07T12:21:06.026Z,1009.1
2018-06-07T12:22:08.052Z,1009
2018-06-07T12:23:10.072Z,1009
2018-06-07T12:24:12.096Z,1009
2018-06-07T12:25:14.126Z,1008.9
2018-06-07T12:26:16.144Z,1008.9
2018-06-07T12:27:18.171Z,1009
2018-06-07T12:28:20.473Z,1009
2018-06-07T12:29:22.494Z,1008.9
2018-06-07T12:30:24.517Z,1008.9
2018-06-07T12:31:26.529Z,1008.8
2018-06-07T12:32:28.551Z,1008.8
2018-06-07T12:33:30.572Z,1008.8
2018-06-07T12:34:32.579Z,1008.8
2018-06-07T12:35:34.585Z,1008.8
2018-06-07T12:36:36.604Z,1008.8
2018-06-07T12:37:38.628Z,1008.8
2018-06-07T12:38:40.945Z,1008.8
2018-06-07T12:39:42.964Z,1008.8
2018-06-07T12:40:44.974Z,1008.8
2018-06-07T12:41:46.990Z,1008.8
2018-06-07T12:42:49.005Z,1008.8
2018-06-07T12:44:23.429Z,1008.9
2018-06-07T12:45:25.574Z,1008.8
2018-06-07T12:46:27.620Z,1008.8
2018-06-07T12:47:30.077Z,1008.7
2018-06-07T12:48:32.432Z,1008.8
2018-06-07T12:49:34.489Z,1008.6
2018-06-07T12:50:36.551Z,1008.6
2018-06-07T12:51:38.604Z,1008.7
2018-06-07T12:52:40.671Z,1008.7
2018-06-07T12:53:42.723Z,1008.7
2018-06-07T12:54:45.091Z,1008.7
2018-06-07T12:55:47.159Z,1008.6
2018-06-07T12:56:49.212Z,1008.7
2018-06-07T12:57:51.274Z,1008.6
2018-06-07T12:58:53.337Z,1008.6